Terminal Aerodrome Forecast
Issued by NWS Wilmington, OH

Current Version | Previous Version | Graphics & Text | Print | Product List | Glossary On
Versions: 1 2 3 4 5 6 7 8 9 10 11 12 13 14 15 16 17 18 19 20 21
000
FTUS41 KILN 171100
TAFCMH
TAF
KCMH 171140Z 1712/1812 22003KT 4SM HZ OVC070
     FM171300 20004KT P6SM SCT060 OVC080
     FM172100 17006KT P6SM VCSH OVC050
     FM180200 15003KT P6SM OVC050=

USA.gov is the U.S. government's official web portal to all federal, state and local government web resources and services.